Orlando, Florida
Traffic Map
Current Weather Conditions
Orlando, Florida
Clear
Clear
24°
Feels Like: 24°
Wind Chill: 24° Ceiling: Unl
Heat Index: 24° Visibility: 10mi
Dew Point: 17° Wind: 5mph
Humidity: 64% Direction: ° ()
Pressure: 30.13in Gusts: 0mph
Raw Report DataKORL 201353Z VRB04KT 10SM CLR 24/17 A3013 RMK AO2 SLP206 T02390167
Traffic Incident Summary
Active as of:
Severity:
Category:
InformationThere was an issue retrieving the traffic information for this location. Please try a different location or try again shortly.
Advertisements